Date,TemperatureHighF,TemperatureAvgF,TemperatureLowF,DewpointHighF,DewpointAvgF,DewpointLowF,HumidityHigh,HumidityAvg,HumidityLow,PressureMaxIn,PressureMinIn,WindSpeedMaxMPH,WindSpeedAvgMPH,GustSpeedMaxMPH,PrecipitationSumIn
2013-8-1,64.7,61.0,57.1,58.0,57.3,55.0,96,87,80,30.05,30.02,4,0,6,0.00
2013-8-2,61.1,59.0,57.4,59.0,57.0,55.0,97,93,84,30.12,30.05,3,0,8,0.47
2013-8-3,72.8,63.6,58.5,63.0,59.2,57.0,98,86,66,30.12,30.04,6,1,9,0.01
2013-8-4,77.7,61.5,56.0,65.0,57.4,54.0,95,87,60,30.05,29.93,7,0,9,0.00
2013-8-5,79.5,66.9,53.9,62.0,58.1,53.0,97,75,48,30.01,29.92,7,1,9,0.00
2013-8-6,81.0,65.6,51.3,60.0,54.6,50.0,96,71,39,29.99,29.91,6,1,10,0.00
2013-8-7,79.8,66.5,52.3,59.0,56.1,51.0,97,72,44,29.99,29.93,9,1,10,0.00
2013-8-8,76.1,64.8,54.6,62.0,57.1,53.0,96,77,58,30.02,29.94,8,1,13,0.00
2013-8-9,79.8,65.7,52.2,62.0,56.3,50.5,95,74,52,29.95,29.82,6,1,9,0.00
2013-8-10,80.1,67.2,60.8,66.0,61.5,57.0,96,82,58,29.99,29.85,7,1,10,0.08
2013-8-11,72.5,63.1,57.5,61.0,58.0,55.0,96,84,62,30.05,29.98,5,1,9,0.06
2013-8-12,74.5,64.7,58.0,60.0,56.9,54.0,89,77,55,30.06,29.99,9,1,10,0.00
2013-8-13,77.3,66.1,55.7,60.0,57.2,54.0,95,75,50,30.09,29.92,6,1,8,0.00
2013-8-14,82.9,66.4,53.7,64.0,58.7,52.0,97,79,45,29.95,29.89,3,0,5,0.01
2013-8-15,70.6,65.7,62.8,67.0,63.8,62.0,97,93,83,29.98,29.91,2,0,4,0.06
2013-8-16,84.6,67.0,62.0,67.0,62.7,53.0,98,88,40,29.99,29.93,5,0,9,0.01
2013-8-17,76.3,66.6,60.1,63.0,59.4,57.0,92,78,60,30.06,29.99,5,1,10,0.00
2013-8-18,76.7,65.5,57.1,61.0,57.3,53.0,95,76,55,30.11,30.06,7,1,13,0.00
2013-8-19,77.9,65.8,58.9,61.0,56.0,50.0,88,72,52,30.11,30.05,6,1,12,0.00
2013-8-20,74.1,64.0,55.0,59.4,54.4,51.0,90,72,49,30.16,30.06,10,2,13,0.00
2013-8-21,77.2,63.5,48.2,60.0,53.5,47.0,96,72,49,30.09,29.93,6,1,11,0.00
2013-8-22,81.4,67.1,51.9,61.0,56.2,50.0,96,70,45,29.95,29.79,6,1,7,0.00
2013-8-23,73.5,65.1,58.5,61.0,58.0,56.0,93,78,62,29.88,29.81,3,0,9,0.00
2013-8-24,71.7,63.2,56.8,62.0,57.6,53.0,95,83,59,29.91,29.84,5,1,11,0.03
2013-8-25,69.7,56.6,49.5,60.0,52.9,48.0,97,88,64,29.94,29.86,6,0,11,0.01
2013-8-26,76.4,64.8,57.9,62.0,57.8,53.0,95,79,52,29.94,29.84,6,0,9,0.00
2013-8-27,79.2,66.6,59.3,62.0,59.0,57.0,93,78,52,29.94,29.78,8,1,8,0.00
2013-8-28,79.4,67.5,59.3,66.0,61.2,58.0,97,82,57,29.88,29.81,4,0,6,0.14
2013-8-29,73.6,65.5,62.3,66.0,63.1,61.0,97,92,73,30.00,29.84,6,0,12,0.71
2013-8-30,77.6,66.8,57.8,63.0,58.9,55.0,97,78,50,30.14,30.00,9,1,9,0.02
2013-8-31,75.4,58.3,50.0,62.0,54.4,49.0,97,88,60,30.07,29.84,7,1,12,0.00